Terminal Aerodrome Forecast
Issued by NWS

Home | Current Version | Previous Version | Text Only | Print | Product List | Glossary On
Versions: 1 2 3 4 5 6 7 8 9 10 11 12 13 14 15 16 17 18
375
FTAK31 PAJN 092334
TAFAPG
TAF
PAPG 092334Z 1000/1024 VRB03KT P6SM FEW015 BKN200
      TEMPO 1000/1002 07005KT 6SM BR FEW004 SCT015 OVC200
     FM100600 12006KT P6SM SCT100 OVC150 WS020/14035KT
     FM100900 12008KT 6SM -RA BKN035 OVC080 WS020/14035KT
     FM101200 12010KT 4SM -RA BR SCT006 SCT010 OVC025
     FM101800 12010G15KT 6SM -RA SCT010 SCT025 OVC040
      AMD LTD TO CLD VIS AND WIND 1007/1012=

USA.gov is the U.S. government's official web portal to all federal, state and local government web resources and services.